Terminal Aerodrome Forecast
Issued by NWS Atlanta, GA

Home | Current Version | Previous Version | Text Only | Print | Product List | Glossary On
Versions: 1 2 3 4 5 6 7 8 9 10 11 12 13 14 15 16
353
FTUS42 KFFC 240520
TAFCSG
TAF
KCSG 240520Z 2406/2506 24004KT P6SM SCT250
     FM241500 25005KT P6SM SCT040
     FM241700 26007KT P6SM VCSH SCT050 PROB30 2417/2423 4SM TSRA
      BKN035CB
     FM250000 24005KT P6SM SCT120 BKN250=

USA.gov is the U.S. government's official web portal to all federal, state and local government web resources and services.